createdAt,value
2022-09-16T00:00:55.660Z,99922.88
2022-09-16T00:03:23.712Z,99918.75
2022-09-16T00:05:54.050Z,99921.75
2022-09-16T00:08:23.748Z,99928.78
2022-09-16T00:10:52.232Z,99930.41
2022-09-16T00:13:20.575Z,99928.81
2022-09-16T00:15:51.843Z,99928.28
2022-09-16T00:18:21.363Z,99932.13
2022-09-16T00:20:51.313Z,99927.59
2022-09-16T00:23:20.004Z,99929.94
2022-09-16T00:25:53.432Z,99924.81
2022-09-16T00:28:21.654Z,99924.38
2022-09-16T00:30:50.090Z,99926.22
2022-09-16T00:33:21.128Z,99929.69
2022-09-16T00:35:49.133Z,99923.06
2022-09-16T00:38:17.034Z,99930.59
2022-09-16T00:40:47.093Z,99929.63
2022-09-16T00:43:17.146Z,99928.22
2022-09-16T00:45:47.686Z,99923.09
2022-09-16T00:48:19.871Z,99932.00
2022-09-16T00:50:51.338Z,99939.47
2022-09-16T00:53:26.050Z,99933.41
2022-09-16T00:55:55.651Z,99940.78
2022-09-16T00:58:33.315Z,99937.00
2022-09-16T01:01:01.761Z,99930.78
2022-09-16T01:03:31.269Z,99931.75
2022-09-16T01:05:59.164Z,99929.53
2022-09-16T01:08:27.142Z,99937.75
2022-09-16T01:10:55.011Z,99936.78
2022-09-16T01:13:26.063Z,99933.88
2022-09-16T01:16:02.186Z,99934.00
2022-09-16T01:18:39.663Z,99929.16
2022-09-16T01:21:26.553Z,99938.78
2022-09-16T01:24:24.225Z,99925.28
2022-09-16T01:27:22.114Z,99940.84
2022-09-16T01:30:08.485Z,99929.59
2022-09-16T01:32:46.764Z,99928.22
2022-09-16T01:35:23.167Z,99936.84
2022-09-16T01:38:00.157Z,99937.41
2022-09-16T01:40:32.892Z,99939.19
2022-09-16T01:43:06.567Z,99932.97
2022-09-16T01:45:40.725Z,99940.72
2022-09-16T01:48:19.536Z,99932.69
2022-09-16T01:50:51.063Z,99940.31
2022-09-16T01:53:27.871Z,99928.53
2022-09-16T01:56:00.149Z,99939.09
2022-09-16T01:58:36.206Z,99931.88
2022-09-16T02:01:11.540Z,99930.63
2022-09-16T02:03:50.596Z,99929.53
2022-09-16T02:06:21.829Z,99929.25
2022-09-16T02:08:56.718Z,99928.66
2022-09-16T02:11:25.227Z,99928.81
2022-09-16T02:13:58.152Z,99921.31
2022-09-16T02:16:31.772Z,99928.81
2022-09-16T02:19:06.863Z,99924.25
2022-09-16T02:21:41.249Z,99921.91
2022-09-16T02:24:15.199Z,99921.66
2022-09-16T02:26:47.317Z,99920.53
2022-09-16T02:29:20.255Z,99921.78
2022-09-16T02:31:53.625Z,99917.78
2022-09-16T02:34:31.199Z,99925.53
2022-09-16T02:37:05.462Z,99923.88
2022-09-16T02:39:38.764Z,99917.78
2022-09-16T02:42:08.010Z,99916.25
2022-09-16T02:44:36.021Z,99908.78
2022-09-16T02:47:13.140Z,99910.59
2022-09-16T02:49:52.928Z,99916.41
2022-09-16T02:52:30.557Z,99914.97
2022-09-16T02:55:08.409Z,99917.34
2022-09-16T02:57:36.325Z,99916.41
2022-09-16T03:00:05.243Z,99912.41
2022-09-16T03:02:33.977Z,99916.53
2022-09-16T03:05:04.532Z,99922.09
2022-09-16T03:07:32.723Z,99926.09
2022-09-16T03:10:00.707Z,99925.00
2022-09-16T03:12:56.473Z,99920.31
2022-09-16T03:15:34.398Z,99925.00
2022-09-16T03:18:29.249Z,99929.28
2022-09-16T03:21:03.997Z,99919.59
2022-09-16T03:23:44.587Z,99932.06
2022-09-16T03:26:21.629Z,99921.38
2022-09-16T03:28:57.361Z,99921.66
2022-09-16T03:31:33.550Z,99925.00
2022-09-16T03:34:07.990Z,99920.56
2022-09-16T03:36:40.287Z,99920.69
2022-09-16T03:39:09.093Z,99924.31
2022-09-16T03:41:39.610Z,99925.72
2022-09-16T03:44:07.372Z,99920.56
2022-09-16T03:46:35.904Z,99910.88
2022-09-16T03:49:04.105Z,99918.91
2022-09-16T03:51:31.923Z,99911.53
2022-09-16T03:54:01.031Z,99918.59
2022-09-16T03:56:28.815Z,99914.19
2022-09-16T03:58:56.585Z,99916.69
2022-09-16T04:01:26.248Z,99915.00
2022-09-16T04:03:54.122Z,99911.25
2022-09-16T04:06:21.924Z,99910.31
2022-09-16T04:08:53.494Z,99908.66
2022-09-16T04:11:22.713Z,99916.97
2022-09-16T04:13:50.488Z,99910.56
2022-09-16T04:16:21.578Z,99913.38
2022-09-16T04:18:49.968Z,99915.19
2022-09-16T04:21:18.202Z,99908.66
2022-09-16T04:23:45.972Z,99912.69
2022-09-16T04:26:13.774Z,99911.56
2022-09-16T04:28:42.944Z,99906.56
2022-09-16T04:31:13.631Z,99909.19
2022-09-16T04:33:41.926Z,99919.69
2022-09-16T04:36:12.591Z,99915.56
2022-09-16T04:38:41.070Z,99910.47
2022-09-16T04:41:12.173Z,99914.84
2022-09-16T04:43:40.727Z,99917.81
2022-09-16T04:46:10.803Z,99914.91
2022-09-16T04:48:39.055Z,99901.47
2022-09-16T04:51:09.363Z,99910.88
2022-09-16T04:53:38.016Z,99902.56
2022-09-16T04:56:07.635Z,99910.88
2022-09-16T04:58:35.807Z,99895.78
2022-09-16T05:01:12.587Z,99905.06
2022-09-16T05:03:52.095Z,99904.22
2022-09-16T05:06:21.581Z,99908.94
2022-09-16T05:08:50.244Z,99904.22
2022-09-16T05:11:23.005Z,99901.84
2022-09-16T05:13:52.332Z,99904.19
2022-09-16T05:16:22.660Z,99902.25
2022-09-16T05:18:56.365Z,99905.59
2022-09-16T05:21:25.741Z,99906.03
2022-09-16T05:23:54.073Z,99908.66
2022-09-16T05:26:24.403Z,99897.56
2022-09-16T05:28:53.310Z,99903.25
2022-09-16T05:31:26.525Z,99909.47
2022-09-16T05:33:57.868Z,99910.75
2022-09-16T05:36:26.988Z,99908.09
2022-09-16T05:39:20.990Z,99913.75
2022-09-16T05:41:43.038Z,99909.31
2022-09-16T05:44:11.360Z,99908.09
2022-09-16T05:46:40.554Z,99907.94
2022-09-16T05:49:10.293Z,99905.16
2022-09-16T05:51:39.322Z,99904.34
2022-09-16T05:54:07.474Z,99910.44
2022-09-16T05:56:35.496Z,99909.47
2022-09-16T05:59:03.539Z,99912.34
2022-09-16T06:01:35.509Z,99924.44
2022-09-16T06:04:06.386Z,99911.00
2022-09-16T06:06:37.389Z,99914.00
2022-09-16T06:09:07.993Z,99912.81
2022-09-16T06:11:38.274Z,99907.22
2022-09-16T06:14:06.974Z,99909.88
2022-09-16T06:16:36.140Z,99907.50
2022-09-16T06:19:06.298Z,99906.38
2022-09-16T06:21:35.599Z,99901.63
2022-09-16T06:24:08.546Z,99908.28
2022-09-16T06:26:37.970Z,99908.84
2022-09-16T06:29:06.644Z,99908.25
2022-09-16T06:31:36.194Z,99900.72
2022-09-16T06:34:05.171Z,99892.09
2022-09-16T06:36:38.613Z,99906.22
2022-09-16T06:39:08.396Z,99897.75
2022-09-16T06:41:36.412Z,99901.25
2022-09-16T06:44:04.312Z,99902.03
2022-09-16T06:46:32.150Z,99900.59
2022-09-16T06:49:05.043Z,99909.22
2022-09-16T06:51:36.210Z,99904.47
2022-09-16T06:54:05.714Z,99913.66
2022-09-16T06:56:36.045Z,99908.53
2022-09-16T06:59:04.512Z,99906.72
2022-09-16T07:01:33.325Z,99904.88
2022-09-16T07:04:05.870Z,99920.06
2022-09-16T07:07:07.382Z,99921.69
2022-09-16T07:09:23.371Z,99915.13
2022-09-16T07:11:51.267Z,99921.34
2022-09-16T07:14:19.144Z,99942.84
2022-09-16T07:16:47.323Z,99928.66
2022-09-16T07:19:15.287Z,99928.63
2022-09-16T07:21:44.889Z,99922.78
2022-09-16T07:24:14.743Z,99925.97
2022-09-16T07:26:44.234Z,99926.06
2022-09-16T07:29:16.795Z,99916.97
2022-09-16T07:31:45.480Z,99920.16
2022-09-16T07:34:14.083Z,99915.81
2022-09-16T07:36:44.699Z,99918.03
2022-09-16T07:39:14.446Z,99918.25
2022-09-16T07:41:45.252Z,99908.47
2022-09-16T07:44:15.922Z,99914.59
2022-09-16T07:46:44.223Z,99916.03
2022-09-16T07:49:14.902Z,99915.50
2022-09-16T07:51:45.259Z,99914.91
2022-09-16T07:54:15.947Z,99919.50
2022-09-16T07:56:45.637Z,99920.94
2022-09-16T07:59:18.873Z,99927.66
2022-09-16T08:01:48.578Z,99918.47
2022-09-16T08:04:17.348Z,99927.13
2022-09-16T08:06:47.219Z,99928.84
2022-09-16T08:09:37.205Z,99921.06
2022-09-16T08:12:05.839Z,99931.47
2022-09-16T08:14:33.804Z,99925.38
2022-09-16T08:17:02.123Z,99926.53
2022-09-16T08:19:30.812Z,99928.44
2022-09-16T08:24:28.391Z,99935.50
2022-09-16T08:29:29.629Z,99927.69
2022-09-16T08:31:57.743Z,99934.28
2022-09-16T08:34:26.402Z,99920.94
2022-09-16T08:36:55.093Z,99926.06
2022-09-16T08:39:24.386Z,99929.47
2022-09-16T08:42:07.636Z,99928.31
2022-09-16T08:44:44.522Z,99914.06
2022-09-16T08:47:23.589Z,99917.94
2022-09-16T08:49:53.138Z,99918.84
2022-09-16T08:52:32.060Z,99917.47
2022-09-16T08:55:04.425Z,99920.72
2022-09-16T08:57:36.730Z,99920.50
2022-09-16T09:00:09.172Z,99929.81
2022-09-16T09:02:44.158Z,99927.75
2022-09-16T09:05:18.732Z,99933.00
2022-09-16T09:08:04.591Z,99929.97
2022-09-16T09:10:42.914Z,99920.25
2022-09-16T09:13:22.892Z,99916.19
2022-09-16T09:15:56.148Z,99916.94
2022-09-16T09:18:39.772Z,99921.44
2022-09-16T09:21:20.737Z,99921.75
2022-09-16T09:23:59.100Z,99918.13
2022-09-16T09:26:36.172Z,99919.47
2022-09-16T09:29:34.423Z,99913.44
2022-09-16T09:32:14.589Z,99908.22
2022-09-16T09:35:00.209Z,99913.56
2022-09-16T09:37:45.287Z,99902.94
2022-09-16T09:40:18.805Z,99904.81
2022-09-16T09:42:53.705Z,99897.75
2022-09-16T09:45:27.731Z,99895.59
2022-09-16T09:48:02.349Z,99900.09
2022-09-16T09:50:34.731Z,99902.09
2022-09-16T09:53:12.125Z,99908.19
2022-09-16T09:55:42.385Z,99905.56
2022-09-16T09:58:21.480Z,99898.44
2022-09-16T10:00:49.576Z,99900.72
2022-09-16T10:03:19.633Z,99902.72
2022-09-16T10:05:49.110Z,99886.47
2022-09-16T10:08:24.832Z,99877.97
2022-09-16T10:10:54.644Z,99883.00
2022-09-16T10:13:25.917Z,99889.28
2022-09-16T10:15:55.899Z,99888.78
2022-09-16T10:18:27.527Z,99901.19
2022-09-16T10:21:05.794Z,99895.13
2022-09-16T10:23:35.302Z,99886.81
2022-09-16T10:26:26.522Z,99882.53
2022-09-16T10:28:58.304Z,99883.69
2022-09-16T10:31:34.212Z,99878.06
2022-09-16T10:34:04.540Z,99883.97
2022-09-16T10:36:36.706Z,99889.91
2022-09-16T10:39:07.588Z,99883.63
2022-09-16T10:41:45.969Z,99878.22
2022-09-16T10:44:18.507Z,99866.44
2022-09-16T10:46:55.651Z,99880.25
2022-09-16T10:49:29.751Z,99887.13
2022-09-16T10:52:09.337Z,99889.88
2022-09-16T10:54:39.141Z,99888.03
2022-09-16T10:57:22.459Z,99874.97
2022-09-16T11:00:06.829Z,99872.19
2022-09-16T11:02:53.584Z,99868.03
2022-09-16T11:05:32.358Z,99867.66
2022-09-16T11:08:10.359Z,99870.56
2022-09-16T11:10:45.250Z,99879.00
2022-09-16T11:13:34.058Z,99865.56
2022-09-16T11:16:25.016Z,99873.31
2022-09-16T11:19:01.321Z,99877.84
2022-09-16T11:21:46.630Z,99869.78
2022-09-16T11:24:31.792Z,99862.44
2022-09-16T11:27:09.344Z,99879.03
2022-09-16T11:30:03.943Z,99872.53
2022-09-16T11:32:59.632Z,99867.72
2022-09-16T11:35:44.393Z,99859.81
2022-09-16T11:38:26.259Z,99861.97
2022-09-16T11:41:03.316Z,99850.72
2022-09-16T11:44:00.087Z,99859.56
2022-09-16T11:46:35.088Z,99860.81
2022-09-16T11:49:18.511Z,99862.25
2022-09-16T11:52:02.322Z,99860.00
2022-09-16T11:54:47.814Z,99853.22
2022-09-16T11:57:20.104Z,99847.00
2022-09-16T11:59:54.395Z,99833.78
2022-09-16T12:02:26.357Z,99851.19
2022-09-16T12:05:09.869Z,99832.94
2022-09-16T12:07:41.075Z,99837.91
2022-09-16T12:10:20.733Z,99842.59
2022-09-16T12:12:52.819Z,99829.88
2022-09-16T12:15:26.234Z,99834.28
2022-09-16T12:18:00.061Z,99826.16
2022-09-16T12:20:34.393Z,99843.13
2022-09-16T12:23:07.696Z,99824.25
2022-09-16T12:25:46.119Z,99821.47
2022-09-16T12:28:18.808Z,99817.75
2022-09-16T12:30:51.316Z,99815.63
2022-09-16T12:33:24.887Z,99808.56
2022-09-16T12:35:59.574Z,99804.41
2022-09-16T12:38:27.882Z,99813.03
2022-09-16T12:41:11.328Z,99821.41
2022-09-16T12:44:23.265Z,99816.28
2022-09-16T12:47:10.949Z,99802.53
2022-09-16T12:50:16.105Z,99801.34
2022-09-16T12:53:23.670Z,99801.53
2022-09-16T12:56:03.962Z,99787.53
2022-09-16T12:59:02.715Z,99800.38
2022-09-16T13:01:38.469Z,99798.19
2022-09-16T13:04:15.627Z,99789.53
2022-09-16T13:06:49.281Z,99803.44
2022-09-16T13:09:24.381Z,99809.56
2022-09-16T13:12:35.410Z,99795.16
2022-09-16T13:14:51.938Z,99782.50
2022-09-16T13:17:29.969Z,99779.38
2022-09-16T13:20:05.772Z,99778.25
2022-09-16T13:22:42.777Z,99772.53
2022-09-16T13:25:21.954Z,99782.06
2022-09-16T13:27:59.315Z,99766.94
2022-09-16T13:30:33.797Z,99757.88
2022-09-16T13:33:04.751Z,99780.59
2022-09-16T13:35:39.576Z,99767.41
2022-09-16T13:38:42.102Z,99764.25
2022-09-16T13:41:15.452Z,99764.13
2022-09-16T13:43:55.208Z,99759.13
2022-09-16T13:46:36.148Z,99761.56
2022-09-16T13:49:25.278Z,99771.03
2022-09-16T13:51:53.859Z,99766.03
2022-09-16T13:54:29.038Z,99755.38
2022-09-16T13:57:24.620Z,99761.44
2022-09-16T14:00:12.492Z,99755.81
2022-09-16T14:03:37.972Z,99755.28
2022-09-16T14:06:34.798Z,99755.81
2022-09-16T14:09:15.485Z,99755.91
2022-09-16T14:11:50.795Z,99762.03
2022-09-16T14:14:46.225Z,99751.47
2022-09-16T14:17:18.645Z,99765.03
2022-09-16T14:19:49.572Z,99752.94
2022-09-16T14:22:19.894Z,99748.50
2022-09-16T14:24:52.903Z,99754.03
2022-09-16T14:27:30.234Z,99740.34
2022-09-16T14:30:01.020Z,99741.38
2022-09-16T14:32:31.818Z,99740.47
2022-09-16T14:35:03.768Z,99743.06
2022-09-16T14:37:33.255Z,99726.78
2022-09-16T14:40:14.122Z,99731.16
2022-09-16T14:42:49.390Z,99732.28
2022-09-16T14:45:22.608Z,99737.72
2022-09-16T14:47:54.060Z,99733.38
2022-09-16T14:50:28.688Z,99741.63
2022-09-16T14:52:58.216Z,99738.31
2022-09-16T14:55:31.125Z,99747.75
2022-09-16T14:57:59.914Z,99745.34
2022-09-16T15:00:34.009Z,99732.59
2022-09-16T15:03:07.720Z,99743.63
2022-09-16T15:05:38.549Z,99733.75
2022-09-16T15:08:14.804Z,99735.88
2022-09-16T15:10:55.298Z,99721.84
2022-09-16T15:13:26.807Z,99722.25
2022-09-16T15:16:00.571Z,99721.13
2022-09-16T15:18:32.701Z,99709.47
2022-09-16T15:21:09.943Z,99716.25
2022-09-16T15:23:41.665Z,99719.19
2022-09-16T15:26:15.477Z,99713.34
2022-09-16T15:28:55.617Z,99720.06
2022-09-16T15:31:36.678Z,99730.91
2022-09-16T15:34:07.052Z,99710.00
2022-09-16T15:36:38.744Z,99712.69
2022-09-16T15:42:18.875Z,99710.03
2022-09-16T15:45:21.946Z,99716.25
2022-09-16T15:48:39.578Z,99714.03
2022-09-16T15:51:28.957Z,99712.94
2022-09-16T15:54:08.573Z,99700.03
2022-09-16T15:56:52.687Z,99711.38
2022-09-16T15:59:26.916Z,99704.69
2022-09-16T16:01:56.692Z,99712.59
2022-09-16T16:04:31.338Z,99710.19
2022-09-16T16:07:01.246Z,99703.22
2022-09-16T16:09:36.347Z,99694.44
2022-09-16T16:12:11.128Z,99699.66
2022-09-16T16:14:40.572Z,99701.66
2022-09-16T16:17:13.898Z,99698.03
2022-09-16T16:19:46.215Z,99692.41
2022-09-16T16:22:31.592Z,99701.03
2022-09-16T16:25:10.810Z,99703.88
2022-09-16T16:27:38.831Z,99696.34
2022-09-16T16:30:07.723Z,99684.72
2022-09-16T16:33:05.546Z,99687.16
2022-09-16T16:35:37.393Z,99689.16
2022-09-16T16:38:19.236Z,99698.75
2022-09-16T16:40:53.079Z,99696.56
2022-09-16T16:43:22.710Z,99698.75
2022-09-16T16:45:57.438Z,99700.94
2022-09-16T16:48:26.218Z,99693.91
2022-09-16T16:51:00.680Z,99689.44
2022-09-16T16:53:31.661Z,99697.28
2022-09-16T16:56:04.801Z,99691.94
2022-09-16T16:58:39.712Z,99686.22
2022-09-16T17:01:09.539Z,99692.19
2022-09-16T17:03:37.721Z,99696.38
2022-09-16T17:06:18.392Z,99714.09
2022-09-16T17:08:53.627Z,99700.22
2022-09-16T17:11:25.591Z,99704.97
2022-09-16T17:13:58.329Z,99710.94
2022-09-16T17:16:27.013Z,99711.13
2022-09-16T17:18:55.925Z,99714.63
2022-09-16T17:21:27.350Z,99714.50
2022-09-16T17:23:57.822Z,99718.34
2022-09-16T17:26:27.494Z,99711.75
2022-09-16T17:28:57.834Z,99722.53
2022-09-16T17:31:32.711Z,99718.59
2022-09-16T17:34:02.905Z,99720.69
2022-09-16T17:36:37.588Z,99717.69
2022-09-16T17:39:07.126Z,99717.75
2022-09-16T17:41:37.652Z,99712.06
2022-09-16T17:44:07.213Z,99713.09
2022-09-16T17:46:36.302Z,99715.13
2022-09-16T17:49:05.965Z,99720.94
2022-09-16T17:51:36.366Z,99719.59
2022-09-16T17:54:04.397Z,99722.75
2022-09-16T17:56:32.235Z,99712.19
2022-09-16T17:59:00.179Z,99713.69
2022-09-16T18:01:29.807Z,99712.53
2022-09-16T18:03:58.132Z,99716.84
2022-09-16T18:06:28.425Z,99717.81
2022-09-16T18:09:00.652Z,99709.19
2022-09-16T18:11:28.751Z,99706.56
2022-09-16T18:13:58.432Z,99717.63
2022-09-16T18:16:27.592Z,99709.69
2022-09-16T18:18:57.389Z,99716.97
2022-09-16T18:21:26.280Z,99715.47
2022-09-16T18:23:56.178Z,99709.19
2022-09-16T18:26:26.683Z,99717.47
2022-09-16T18:29:12.398Z,99709.19
2022-09-16T18:31:41.978Z,99699.28
2022-09-16T18:34:10.388Z,99706.38
2022-09-16T18:36:39.335Z,99700.44
2022-09-16T18:39:11.228Z,99694.78
2022-09-16T18:41:42.243Z,99695.28
2022-09-16T18:44:14.590Z,99700.75
2022-09-16T18:46:43.031Z,99706.88
2022-09-16T18:49:12.845Z,99702.59
2022-09-16T18:51:50.858Z,99710.03
2022-09-16T18:54:24.573Z,99707.22
2022-09-16T18:56:56.415Z,99706.72
2022-09-16T18:59:26.803Z,99709.84
2022-09-16T19:01:56.964Z,99714.81
2022-09-16T19:04:27.056Z,99711.34
2022-09-16T19:06:59.168Z,99702.91
2022-09-16T19:09:27.784Z,99713.19
2022-09-16T19:11:56.999Z,99704.88
2022-09-16T19:14:27.332Z,99703.75
2022-09-16T19:16:58.019Z,99705.38
2022-09-16T19:19:25.849Z,99705.53
2022-09-16T19:21:53.885Z,99695.13
2022-09-16T19:24:23.856Z,99704.22
2022-09-16T19:26:53.639Z,99688.50
2022-09-16T19:29:23.527Z,99707.50
2022-09-16T19:31:53.301Z,99710.78
2022-09-16T19:34:22.112Z,99695.91
2022-09-16T19:36:50.619Z,99709.13
2022-09-16T19:39:19.149Z,99705.81
2022-09-16T19:41:47.329Z,99694.56
2022-09-16T19:44:18.105Z,99705.59
2022-09-16T19:46:49.480Z,99717.59
2022-09-16T19:49:20.412Z,99717.69
2022-09-16T19:51:50.264Z,99709.88
2022-09-16T19:54:19.133Z,99706.22
2022-09-16T19:56:50.646Z,99706.31
2022-09-16T19:59:20.132Z,99696.63
2022-09-16T20:01:50.477Z,99703.50
2022-09-16T20:04:21.082Z,99703.16
2022-09-16T20:06:50.399Z,99698.19
2022-09-16T20:09:20.101Z,99692.56
2022-09-16T20:11:49.388Z,99684.72
2022-09-16T20:14:19.955Z,99677.25
2022-09-16T20:16:55.553Z,99662.97
2022-09-16T20:19:23.710Z,99653.88
2022-09-16T20:21:52.170Z,99661.69
2022-09-16T20:24:37.988Z,99658.94
2022-09-16T20:27:06.577Z,99653.41
2022-09-16T20:29:36.847Z,99658.03
2022-09-16T20:32:09.446Z,99652.91
2022-09-16T20:34:37.661Z,99643.25
2022-09-16T20:37:05.833Z,99646.25
2022-09-16T20:39:37.127Z,99641.03
2022-09-16T20:42:10.240Z,99639.66
2022-09-16T20:44:50.226Z,99634.41
2022-09-16T20:47:22.226Z,99642.72
2022-09-16T20:49:53.936Z,99640.28
2022-09-16T20:52:24.825Z,99640.56
2022-09-16T20:54:55.494Z,99625.09
2022-09-16T20:57:24.051Z,99631.19
2022-09-16T20:59:52.411Z,99609.31
2022-09-16T21:02:21.862Z,99610.97
2022-09-16T21:04:50.077Z,99610.00
2022-09-16T21:07:21.365Z,99609.31
2022-09-16T21:09:51.986Z,99616.50
2022-09-16T21:12:21.572Z,99623.56
2022-09-16T21:14:49.951Z,99615.97
2022-09-16T21:17:19.980Z,99619.97
2022-09-16T21:19:50.405Z,99606.97
2022-09-16T21:22:19.508Z,99616.50
2022-09-16T21:24:48.081Z,99615.69
2022-09-16T21:27:16.688Z,99619.28
2022-09-16T21:29:44.689Z,99619.38
2022-09-16T21:32:15.696Z,99618.97
2022-09-16T21:34:43.514Z,99618.97
2022-09-16T21:37:14.437Z,99622.47
2022-09-16T21:39:42.397Z,99621.19
2022-09-16T21:42:10.538Z,99619.56
2022-09-16T21:44:38.351Z,99617.88
2022-09-16T21:47:11.660Z,99615.38
2022-09-16T21:49:40.500Z,99624.38
2022-09-16T21:52:08.656Z,99620.19
2022-09-16T21:54:40.997Z,99631.94
2022-09-16T21:57:09.041Z,99620.59
2022-09-16T21:59:36.986Z,99635.66
2022-09-16T22:02:08.803Z,99626.59
2022-09-16T22:05:03.007Z,99624.13
2022-09-16T22:07:36.022Z,99625.75
2022-09-16T22:10:07.991Z,99634.63
2022-09-16T22:12:40.807Z,99638.47
2022-09-16T22:15:09.484Z,99640.41
2022-09-16T22:17:37.467Z,99628.09
2022-09-16T22:20:08.440Z,99653.03
2022-09-16T22:22:36.590Z,99641.50
2022-09-16T22:25:06.779Z,99632.78
2022-09-16T22:27:34.630Z,99646.22
2022-09-16T22:30:02.475Z,99640.41
2022-09-16T22:32:30.518Z,99645.78
2022-09-16T22:34:58.540Z,99647.28
2022-09-16T22:37:26.546Z,99655.88
2022-09-16T22:39:54.498Z,99637.88
2022-09-16T22:42:24.047Z,99640.25
2022-09-16T22:44:51.877Z,99635.56
2022-09-16T22:47:19.734Z,99648.97
2022-09-16T22:49:47.502Z,99648.00
2022-09-16T22:52:15.382Z,99651.84
2022-09-16T22:54:43.267Z,99646.44
2022-09-16T22:57:11.162Z,99658.19
2022-09-16T22:59:40.360Z,99653.31
2022-09-16T23:02:08.372Z,99658.88
2022-09-16T23:04:36.303Z,99659.41
2022-09-16T23:07:04.104Z,99662.19
2022-09-16T23:09:31.996Z,99655.28
2022-09-16T23:12:00.585Z,99658.28
2022-09-16T23:14:28.518Z,99654.69
2022-09-16T23:16:57.986Z,99665.47
2022-09-16T23:19:25.855Z,99668.75
2022-09-16T23:21:53.630Z,99673.13
2022-09-16T23:24:22.533Z,99660.47
2022-09-16T23:26:50.356Z,99664.53
2022-09-16T23:29:19.242Z,99680.63
2022-09-16T23:31:47.302Z,99672.59
2022-09-16T23:34:18.969Z,99669.66
2022-09-16T23:36:47.116Z,99668.56
2022-09-16T23:39:16.754Z,99667.31
2022-09-16T23:41:45.096Z,99667.84
2022-09-16T23:44:14.801Z,99670.75
2022-09-16T23:46:43.032Z,99675.16
2022-09-16T23:49:11.406Z,99674.47
2022-09-16T23:51:40.650Z,99677.78
2022-09-16T23:54:08.775Z,99681.56
2022-09-16T23:56:37.099Z,99682.69
2022-09-16T23:59:04.921Z,99681.03
